FX5018 EDDK-EDLW
Flight info
| Callsign | FX5018 |
|---|---|
| Flight time | 0h 33m |
| Altitude | 7000 |
| Route | PODIP9B PODIP DCT ADEMI ADEMI2A |
| Aircraft | C208/L-SDFGR/C |
Departure
| Time | 2026-05-05 20:15 |
|---|---|
| Airport | Cologne Bonn Airport (EDDK) |
Arrival
| Time | 2026-05-05 20:49 |
|---|---|
| Airport | Dortmund Airport (EDLW) |
| Time | Latitude | Longitude | Altitude | Speed | Heading |
|---|---|---|---|---|---|
| 2026-05-05 19:53 | 50.87529 | 7.12822 | 229 ft | 0 kts | 227° |
| 2026-05-05 20:02 | 50.87528 | 7.12820 | 229 ft | 1 kts | 243° |
| 2026-05-05 20:02 | 50.87535 | 7.12816 | 229 ft | 2 kts | 50° |
| 2026-05-05 20:03 | 50.87536 | 7.12826 | 229 ft | 0 kts | 86° |
| 2026-05-05 20:05 | 50.87538 | 7.12839 | 229 ft | 4 kts | 68° |
| 2026-05-05 20:05 | 50.87568 | 7.12889 | 229 ft | 9 kts | 44° |
| 2026-05-05 20:06 | 50.87626 | 7.12905 | 229 ft | 11 kts | 314° |
| 2026-05-05 20:06 | 50.87693 | 7.12808 | 229 ft | 15 kts | 317° |
| 2026-05-05 20:06 | 50.87777 | 7.12684 | 229 ft | 18 kts | 317° |
| 2026-05-05 20:06 | 50.87894 | 7.12614 | 229 ft | 20 kts | 17° |
| 2026-05-05 20:07 | 50.87976 | 7.12599 | 229 ft | 11 kts | 228° |
| 2026-05-05 20:07 | 50.87897 | 7.12615 | 229 ft | 14 kts | 189° |
| 2026-05-05 20:07 | 50.87788 | 7.12559 | 229 ft | 18 kts | 201° |
| 2026-05-05 20:07 | 50.87655 | 7.12492 | 229 ft | 21 kts | 199° |
| 2026-05-05 20:08 | 50.87514 | 7.12420 | 229 ft | 22 kts | 198° |
| 2026-05-05 20:08 | 50.87369 | 7.12345 | 229 ft | 22 kts | 198° |
| 2026-05-05 20:08 | 50.87222 | 7.12272 | 231 ft | 21 kts | 198° |
| 2026-05-05 20:08 | 50.87127 | 7.12195 | 233 ft | 0 kts | 227° |
| 2026-05-05 20:10 | 50.87109 | 7.12164 | 233 ft | 7 kts | 230° |
| 2026-05-05 20:10 | 50.87058 | 7.12093 | 234 ft | 12 kts | 215° |
| 2026-05-05 20:10 | 50.86955 | 7.12047 | 231 ft | 20 kts | 175° |
| 2026-05-05 20:11 | 50.86861 | 7.12081 | 230 ft | 12 kts | 165° |
| 2026-05-05 20:11 | 50.86760 | 7.12121 | 230 ft | 18 kts | 166° |
| 2026-05-05 20:11 | 50.86623 | 7.12178 | 230 ft | 23 kts | 165° |
| 2026-05-05 20:11 | 50.86458 | 7.12245 | 230 ft | 21 kts | 165° |
| 2026-05-05 20:12 | 50.86347 | 7.12290 | 230 ft | 18 kts | 167° |
| 2026-05-05 20:12 | 50.86224 | 7.12334 | 236 ft | 18 kts | 169° |
| 2026-05-05 20:12 | 50.86150 | 7.12357 | 239 ft | 0 kts | 168° |
| 2026-05-05 20:13 | 50.86135 | 7.12363 | 240 ft | 8 kts | 166° |
| 2026-05-05 20:13 | 50.86044 | 7.12421 | 243 ft | 16 kts | 119° |
| 2026-05-05 20:13 | 50.86056 | 7.12525 | 244 ft | 0 kts | 65° |
| 2026-05-05 20:13 | 50.86058 | 7.12532 | 244 ft | 6 kts | 64° |
| 2026-05-05 20:14 | 50.86139 | 7.12793 | 240 ft | 49 kts | 64° |
| 2026-05-05 20:14 | 50.86339 | 7.13461 | 250 ft | 83 kts | 58° |
| 2026-05-05 20:14 | 50.86636 | 7.14284 | 365 ft | 93 kts | 51° |
| 2026-05-05 20:14 | 50.87016 | 7.15173 | 490 ft | 104 kts | 51° |
| 2026-05-05 20:15 | 50.87357 | 7.16261 | 646 ft | 114 kts | 66° |
| 2026-05-05 20:15 | 50.87652 | 7.17448 | 855 ft | 118 kts | 64° |
| 2026-05-05 20:15 | 50.87961 | 7.18669 | 1093 ft | 121 kts | 64° |
| 2026-05-05 20:15 | 50.88305 | 7.19901 | 1327 ft | 123 kts | 63° |
| 2026-05-05 20:16 | 50.88624 | 7.21021 | 1537 ft | 123 kts | 64° |
| 2026-05-05 20:16 | 50.88991 | 7.22268 | 1753 ft | 127 kts | 63° |
| 2026-05-05 20:16 | 50.89361 | 7.23552 | 1950 ft | 129 kts | 66° |
| 2026-05-05 20:16 | 50.89727 | 7.24840 | 2198 ft | 127 kts | 66° |
| 2026-05-05 20:17 | 50.90087 | 7.26095 | 2453 ft | 125 kts | 65° |
| 2026-05-05 20:17 | 50.90448 | 7.27330 | 2702 ft | 123 kts | 68° |
| 2026-05-05 20:17 | 50.90797 | 7.28531 | 2958 ft | 118 kts | 65° |
| 2026-05-05 20:17 | 50.91147 | 7.29713 | 3195 ft | 118 kts | 65° |
| 2026-05-05 20:18 | 50.91493 | 7.30895 | 3440 ft | 118 kts | 64° |
| 2026-05-05 20:18 | 50.91833 | 7.32066 | 3671 ft | 117 kts | 66° |
| 2026-05-05 20:18 | 50.92171 | 7.33227 | 3919 ft | 116 kts | 65° |
| 2026-05-05 20:18 | 50.92462 | 7.34414 | 4153 ft | 116 kts | 85° |
| 2026-05-05 20:19 | 50.92484 | 7.35679 | 4405 ft | 114 kts | 85° |
| 2026-05-05 20:19 | 50.92538 | 7.36927 | 4650 ft | 113 kts | 85° |
| 2026-05-05 20:19 | 50.92587 | 7.38141 | 4888 ft | 111 kts | 85° |
| 2026-05-05 20:19 | 50.92637 | 7.39374 | 5087 ft | 112 kts | 85° |
| 2026-05-05 20:20 | 50.92687 | 7.40624 | 5269 ft | 115 kts | 85° |
| 2026-05-05 20:20 | 50.92739 | 7.41905 | 5449 ft | 118 kts | 86° |
| 2026-05-05 20:20 | 50.92791 | 7.43211 | 5635 ft | 120 kts | 85° |
| 2026-05-05 20:20 | 50.92844 | 7.44540 | 5821 ft | 122 kts | 86° |
| 2026-05-05 20:21 | 50.92899 | 7.45888 | 6008 ft | 124 kts | 85° |
| 2026-05-05 20:21 | 50.92954 | 7.47257 | 6194 ft | 125 kts | 86° |
| 2026-05-05 20:21 | 50.93008 | 7.48644 | 6372 ft | 127 kts | 86° |
| 2026-05-05 20:21 | 50.93062 | 7.50046 | 6546 ft | 128 kts | 88° |
| 2026-05-05 20:22 | 50.93102 | 7.51464 | 6715 ft | 129 kts | 87° |
| 2026-05-05 20:22 | 50.93156 | 7.52897 | 6892 ft | 131 kts | 87° |
| 2026-05-05 20:22 | 50.93213 | 7.54349 | 7011 ft | 137 kts | 87° |
| 2026-05-05 20:22 | 50.93274 | 7.55922 | 7022 ft | 149 kts | 89° |
| 2026-05-05 20:23 | 50.93332 | 7.57611 | 7022 ft | 157 kts | 89° |
| 2026-05-05 20:23 | 50.93396 | 7.59369 | 7041 ft | 160 kts | 89° |
| 2026-05-05 20:23 | 50.93450 | 7.61169 | 7018 ft | 166 kts | 88° |
| 2026-05-05 20:23 | 50.93543 | 7.63007 | 7020 ft | 168 kts | 88° |
| 2026-05-05 20:24 | 50.93613 | 7.64875 | 7016 ft | 170 kts | 89° |
| 2026-05-05 20:24 | 50.93680 | 7.66749 | 7014 ft | 171 kts | 89° |
| 2026-05-05 20:24 | 50.93754 | 7.68614 | 7013 ft | 172 kts | 89° |
| 2026-05-05 20:24 | 50.93824 | 7.70506 | 7015 ft | 172 kts | 89° |
| 2026-05-05 20:25 | 50.93900 | 7.72410 | 7016 ft | 172 kts | 89° |
| 2026-05-05 20:25 | 50.93968 | 7.74304 | 7014 ft | 172 kts | 89° |
| 2026-05-05 20:25 | 50.94036 | 7.76202 | 7012 ft | 172 kts | 89° |
| 2026-05-05 20:25 | 50.94110 | 7.78102 | 7011 ft | 173 kts | 89° |
| 2026-05-05 20:26 | 50.94233 | 7.79995 | 7000 ft | 174 kts | 76° |
| 2026-05-05 20:26 | 50.94919 | 7.81547 | 6992 ft | 176 kts | 39° |
| 2026-05-05 20:26 | 50.96044 | 7.82228 | 6997 ft | 175 kts | 6° |
| 2026-05-05 20:26 | 50.97259 | 7.82358 | 6999 ft | 175 kts | 4° |
| 2026-05-05 20:27 | 50.98473 | 7.82510 | 7005 ft | 175 kts | 5° |
| 2026-05-05 20:27 | 50.99691 | 7.82664 | 7008 ft | 176 kts | 5° |
| 2026-05-05 20:27 | 51.00910 | 7.82817 | 7006 ft | 176 kts | 6° |
| 2026-05-05 20:27 | 51.02128 | 7.82983 | 7008 ft | 176 kts | 5° |
| 2026-05-05 20:28 | 51.03348 | 7.83127 | 7007 ft | 176 kts | 5° |
| 2026-05-05 20:28 | 51.04571 | 7.83280 | 7006 ft | 176 kts | 5° |
| 2026-05-05 20:28 | 51.05794 | 7.83438 | 7006 ft | 176 kts | 5° |
| 2026-05-05 20:28 | 51.07001 | 7.83593 | 7010 ft | 176 kts | 5° |
| 2026-05-05 20:29 | 51.08221 | 7.83747 | 7010 ft | 174 kts | 6° |
| 2026-05-05 20:29 | 51.09426 | 7.83905 | 7010 ft | 173 kts | 6° |
| 2026-05-05 20:29 | 51.10625 | 7.84056 | 7008 ft | 173 kts | 6° |
| 2026-05-05 20:29 | 51.11822 | 7.84201 | 7012 ft | 172 kts | 6° |
| 2026-05-05 20:30 | 51.13016 | 7.84356 | 7010 ft | 172 kts | 7° |
| 2026-05-05 20:30 | 51.14210 | 7.84516 | 7007 ft | 173 kts | 6° |
| 2026-05-05 20:30 | 51.15410 | 7.84659 | 7011 ft | 173 kts | 6° |
| 2026-05-05 20:30 | 51.16608 | 7.84812 | 7009 ft | 173 kts | 7° |
| 2026-05-05 20:31 | 51.17810 | 7.84967 | 7015 ft | 173 kts | 7° |
| 2026-05-05 20:31 | 51.19012 | 7.85126 | 7011 ft | 173 kts | 7° |
| 2026-05-05 20:31 | 51.20209 | 7.85281 | 6840 ft | 172 kts | 6° |
| 2026-05-05 20:31 | 51.21384 | 7.85068 | 6622 ft | 173 kts | 339° |
| 2026-05-05 20:32 | 51.22469 | 7.84248 | 6428 ft | 172 kts | 335° |
| 2026-05-05 20:32 | 51.23591 | 7.83661 | 6231 ft | 170 kts | 3° |
| 2026-05-05 20:32 | 51.24742 | 7.83997 | 6037 ft | 168 kts | 14° |
| 2026-05-05 20:32 | 51.25894 | 7.84336 | 5832 ft | 169 kts | 10° |
| 2026-05-05 20:33 | 51.27058 | 7.84579 | 5625 ft | 168 kts | 9° |
| 2026-05-05 20:33 | 51.28209 | 7.84809 | 5517 ft | 162 kts | 8° |
| 2026-05-05 20:33 | 51.29301 | 7.85024 | 5506 ft | 155 kts | 8° |
| 2026-05-05 20:33 | 51.30355 | 7.85232 | 5504 ft | 151 kts | 9° |
| 2026-05-05 20:34 | 51.31392 | 7.85439 | 5504 ft | 149 kts | 11° |
| 2026-05-05 20:34 | 51.32405 | 7.85646 | 5502 ft | 148 kts | 10° |
| 2026-05-05 20:34 | 51.33425 | 7.85853 | 5508 ft | 148 kts | 9° |
| 2026-05-05 20:34 | 51.34450 | 7.86060 | 5512 ft | 148 kts | 9° |
| 2026-05-05 20:35 | 51.35476 | 7.86271 | 5513 ft | 148 kts | 9° |
| 2026-05-05 20:35 | 51.36502 | 7.86482 | 5517 ft | 149 kts | 11° |
| 2026-05-05 20:35 | 51.37530 | 7.86690 | 5517 ft | 150 kts | 10° |
| 2026-05-05 20:35 | 51.38573 | 7.86903 | 5520 ft | 152 kts | 10° |
| 2026-05-05 20:36 | 51.39631 | 7.87121 | 5523 ft | 154 kts | 9° |
| 2026-05-05 20:36 | 51.40697 | 7.87337 | 5530 ft | 155 kts | 9° |
| 2026-05-05 20:36 | 51.41769 | 7.87557 | 5533 ft | 155 kts | 11° |
| 2026-05-05 20:36 | 51.42839 | 7.87775 | 5534 ft | 155 kts | 9° |
| 2026-05-05 20:37 | 51.43911 | 7.87992 | 5530 ft | 155 kts | 9° |
| 2026-05-05 20:37 | 51.44623 | 7.88137 | 5532 ft | 156 kts | 10° |
| 2026-05-05 20:37 | 51.46059 | 7.88431 | 5529 ft | 156 kts | 9° |
| 2026-05-05 20:37 | 51.47129 | 7.88628 | 5526 ft | 155 kts | 4° |
| 2026-05-05 20:38 | 51.48120 | 7.88058 | 5520 ft | 160 kts | 323° |
| 2026-05-05 20:38 | 51.48864 | 7.86724 | 5519 ft | 159 kts | 324° |
| 2026-05-05 20:38 | 51.49884 | 7.86414 | 5527 ft | 152 kts | 22° |
| 2026-05-05 20:38 | 51.50633 | 7.87527 | 5537 ft | 149 kts | 58° |
| 2026-05-05 20:39 | 51.51212 | 7.88933 | 5374 ft | 152 kts | 57° |
| 2026-05-05 20:39 | 51.51798 | 7.90354 | 5179 ft | 153 kts | 59° |
| 2026-05-05 20:39 | 51.52386 | 7.91754 | 5002 ft | 147 kts | 57° |
| 2026-05-05 20:39 | 51.52948 | 7.93077 | 4818 ft | 141 kts | 58° |
| 2026-05-05 20:40 | 51.53499 | 7.94376 | 4588 ft | 141 kts | 58° |
| 2026-05-05 20:40 | 51.54039 | 7.95682 | 4334 ft | 140 kts | 59° |
| 2026-05-05 20:40 | 51.54606 | 7.96935 | 4073 ft | 139 kts | 49° |
| 2026-05-05 20:40 | 51.55518 | 7.97421 | 3789 ft | 149 kts | 356° |
| 2026-05-05 20:41 | 51.56479 | 7.96787 | 3526 ft | 148 kts | 338° |
| 2026-05-05 20:41 | 51.57397 | 7.96074 | 3272 ft | 145 kts | 339° |
| 2026-05-05 20:41 | 51.58262 | 7.95246 | 2996 ft | 149 kts | 317° |
| 2026-05-05 20:41 | 51.58604 | 7.94316 | 2943 ft | 142 kts | 297° |
| 2026-05-05 20:42 | 51.59139 | 7.92505 | 2936 ft | 128 kts | 298° |
| 2026-05-05 20:42 | 51.59513 | 7.91240 | 2940 ft | 123 kts | 298° |
| 2026-05-05 20:42 | 51.59757 | 7.90411 | 2943 ft | 126 kts | 298° |
| 2026-05-05 20:42 | 51.60151 | 7.89121 | 2942 ft | 131 kts | 296° |
| 2026-05-05 20:43 | 51.60419 | 7.87703 | 2945 ft | 135 kts | 277° |
| 2026-05-05 20:43 | 51.60232 | 7.85709 | 2953 ft | 137 kts | 261° |
| 2026-05-05 20:43 | 51.60014 | 7.84739 | 2951 ft | 137 kts | 238° |
| 2026-05-05 20:43 | 51.59426 | 7.82942 | 2958 ft | 138 kts | 239° |
| 2026-05-05 20:44 | 51.59128 | 7.82043 | 2958 ft | 129 kts | 239° |
| 2026-05-05 20:44 | 51.58710 | 7.80834 | 2955 ft | 119 kts | 236° |
| 2026-05-05 20:44 | 51.58292 | 7.79693 | 2882 ft | 121 kts | 234° |
| 2026-05-05 20:44 | 51.57882 | 7.78464 | 2727 ft | 128 kts | 240° |
| 2026-05-05 20:45 | 51.56992 | 7.75929 | 2376 ft | 132 kts | 238° |
| 2026-05-05 20:45 | 51.56548 | 7.74664 | 2199 ft | 132 kts | 239° |
| 2026-05-05 20:45 | 51.56095 | 7.73368 | 2012 ft | 127 kts | 240° |
| 2026-05-05 20:46 | 51.55691 | 7.72226 | 1846 ft | 111 kts | 240° |
| 2026-05-05 20:46 | 51.55331 | 7.71210 | 1709 ft | 102 kts | 244° |
| 2026-05-05 20:46 | 51.54994 | 7.70245 | 1565 ft | 96 kts | 242° |
| 2026-05-05 20:46 | 51.54664 | 7.69300 | 1437 ft | 100 kts | 243° |
| 2026-05-05 20:47 | 51.54320 | 7.68326 | 1294 ft | 100 kts | 244° |
| 2026-05-05 20:47 | 51.53983 | 7.67353 | 1152 ft | 99 kts | 243° |
| 2026-05-05 20:47 | 51.53643 | 7.66398 | 1012 ft | 97 kts | 244° |
| 2026-05-05 20:47 | 51.53303 | 7.65474 | 869 ft | 96 kts | 241° |
| 2026-05-05 20:48 | 51.52990 | 7.64524 | 754 ft | 97 kts | 242° |
| 2026-05-05 20:48 | 51.52667 | 7.63588 | 630 ft | 95 kts | 245° |
| 2026-05-05 20:48 | 51.52344 | 7.62679 | 501 ft | 93 kts | 245° |
| 2026-05-05 20:48 | 51.52044 | 7.61838 | 411 ft | 76 kts | 243° |
| 2026-05-05 20:49 | 51.51849 | 7.61270 | 415 ft | 45 kts | 240° |
| 2026-05-05 20:49 | 51.51708 | 7.60870 | 420 ft | 39 kts | 241° |
| 2026-05-05 20:49 | 51.51606 | 7.60614 | 415 ft | 14 kts | 206° |
| 2026-05-05 20:49 | 51.51532 | 7.60657 | 419 ft | 9 kts | 117° |
| 2026-05-05 20:50 | 51.51527 | 7.60711 | 420 ft | 0 kts | 81° |
| 2026-05-05 20:50 | 51.51528 | 7.60716 | 421 ft | 4 kts | 80° |
| 2026-05-05 20:50 | 51.51544 | 7.60816 | 419 ft | 8 kts | 72° |
| 2026-05-05 20:51 | 51.51550 | 7.60848 | 424 ft | 0 kts | 73° |
| 2026-05-05 20:51 | 51.51570 | 7.60952 | 426 ft | 21 kts | 73° |
| 2026-05-05 20:51 | 51.51629 | 7.61186 | 423 ft | 23 kts | 59° |
| 2026-05-05 20:52 | 51.51686 | 7.61346 | 425 ft | 16 kts | 61° |
| 2026-05-05 20:52 | 51.51691 | 7.61422 | 425 ft | 6 kts | 152° |
| 2026-05-05 20:52 | 51.51673 | 7.61436 | 426 ft | 0 kts | 154° |
| 2026-05-05 20:52 | 51.51671 | 7.61439 | 427 ft | 3 kts | 139° |
| 2026-05-05 20:53 | 51.51642 | 7.61477 | 430 ft | 0 kts | 156° |